Time;durP1;ratioP1;P1;durP2;ratioP2;P2;SDS_P1;SDS_P2;PMS_P1;PMS_P2;Temp;Humidity;BMP_temperature;BMP_pressure;BME280_temperature;BME280_humidity;BME280_pressure;Samples;Min_cycle;Max_cycle;Signal;HPM_P1;HPM_P2
2023/08/14 00:01:55;;;;;;;3.30;3.00;;;19.70;99.90;;;;;;5043249;28;20080;-35
2023/08/14 00:04:21;;;;;;;5.65;2.83;;;19.70;99.90;;;;;;5042053;28;20114;-31
2023/08/14 00:06:46;;;;;;;3.67;3.00;;;19.70;99.90;;;;;;5043872;28;20040;-33
2023/08/14 00:09:12;;;;;;;3.22;2.50;;;19.80;99.90;;;;;;5041662;28;20032;-32
2023/08/14 00:11:38;;;;;;;2.97;2.60;;;19.80;99.90;;;;;;5042715;28;20025;-38
2023/08/14 00:14:03;;;;;;;3.13;2.83;;;19.70;99.90;;;;;;5044496;28;20055;-32
2023/08/14 00:16:29;;;;;;;5.45;2.60;;;19.70;99.90;;;;;;5046109;28;20032;-31
2023/08/14 00:18:55;;;;;;;5.93;2.97;;;19.70;99.90;;;;;;5039642;28;20052;-31
2023/08/14 00:21:21;;;;;;;2.92;2.40;;;19.70;99.90;;;;;;5044605;28;20600;-30
2023/08/14 00:23:47;;;;;;;3.30;2.35;;;19.70;99.90;;;;;;5042714;28;20037;-31
2023/08/14 00:26:12;;;;;;;2.63;2.38;;;19.60;99.90;;;;;;5039327;28;20037;-38
2023/08/14 00:28:38;;;;;;;2.92;2.47;;;19.70;99.90;;;;;;5037241;28;20036;-41
2023/08/14 00:31:04;;;;;;;3.63;2.30;;;19.70;99.90;;;;;;5038501;28;20715;-42
2023/08/14 00:33:30;;;;;;;3.55;2.45;;;19.70;99.90;;;;;;5037728;28;20021;-42
2023/08/14 00:35:55;;;;;;;2.80;2.03;;;19.60;99.90;;;;;;5036105;28;20163;-41
2023/08/14 00:38:21;;;;;;;2.90;2.28;;;19.60;99.90;;;;;;5041638;28;20142;-41
2023/08/14 00:40:46;;;;;;;3.35;2.33;;;19.50;99.90;;;;;;5044487;28;20183;-42
2023/08/14 00:43:12;;;;;;;3.50;2.60;;;19.40;99.90;;;;;;5043581;28;20067;-42
2023/08/14 00:45:38;;;;;;;3.42;2.45;;;19.20;99.90;;;;;;5039821;28;20513;-42
2023/08/14 00:48:05;;;;;;;2.70;2.10;;;19.20;99.90;;;;;;5026633;28;20033;-41
2023/08/14 00:50:31;;;;;;;3.03;2.45;;;19.20;99.90;;;;;;5039241;28;20167;-40
2023/08/14 00:52:59;;;;;;;3.63;2.33;;;19.30;99.90;;;;;;5043629;28;20099;-42
2023/08/14 00:55:28;;;;;;;4.10;2.55;;;19.30;99.90;;;;;;5043521;28;20024;-42
2023/08/14 00:57:54;;;;;;;2.85;2.40;;;19.30;99.90;;;;;;5043580;28;20445;-41
2023/08/14 01:00:21;;;;;;;2.88;2.67;;;19.30;99.90;;;;;;5025485;28;20128;-37
2023/08/14 01:02:48;;;;;;;5.03;2.30;;;19.20;99.90;;;;;;5042816;28;20575;-40
2023/08/14 01:05:14;;;;;;;2.78;2.42;;;19.20;99.90;;;;;;5043303;28;20527;-39
2023/08/14 01:07:39;;;;;;;3.72;2.33;;;19.10;99.90;;;;;;5026469;28;20028;-42
2023/08/14 01:10:07;;;;;;;3.80;2.17;;;19.20;99.90;;;;;;5041944;28;20496;-41
2023/08/14 01:12:47;;;;;;;3.28;2.15;;;19.20;99.90;;;;;;5042547;28;20071;-41
2023/08/14 01:15:32;;;;;;;2.70;2.47;;;19.10;99.90;;;;;;5042865;28;20022;-41
2023/08/14 01:18:01;;;;;;;3.13;2.17;;;19.00;99.90;;;;;;5044611;28;20053;-38
2023/08/14 01:20:29;;;;;;;2.58;2.38;;;19.10;99.90;;;;;;5039612;28;20077;-40
2023/08/14 01:23:25;;;;;;;4.22;2.13;;;19.10;99.90;;;;;;5040351;28;20486;-41
2023/08/14 01:25:52;;;;;;;2.95;2.35;;;19.00;99.90;;;;;;5042596;28;20036;-41
2023/08/14 01:28:18;;;;;;;2.00;1.90;;;19.00;99.90;;;;;;5045323;28;20029;-36
2023/08/14 01:30:44;;;;;;;2.70;2.22;;;19.10;99.90;;;;;;5041767;28;20021;-42
2023/08/14 01:33:10;;;;;;;5.53;2.38;;;19.10;99.90;;;;;;5042402;28;20086;-42
2023/08/14 01:35:48;;;;;;;3.47;2.08;;;19.00;99.90;;;;;;5043619;28;20037;-31
2023/08/14 01:38:36;;;;;;;2.95;2.25;;;18.90;99.90;;;;;;5022135;28;20037;-32
2023/08/14 01:41:08;;;;;;;;;;;18.70;99.90;;;;;;5041862;28;20032;-36
2023/08/14 01:43:49;;;;;;;3.50;2.30;;;18.80;99.90;;;;;;5044392;28;20401;-38
2023/08/14 01:46:16;;;;;;;2.92;2.20;;;18.80;99.90;;;;;;5045075;28;20025;-31
2023/08/14 01:48:45;;;;;;;3.00;2.80;;;18.80;99.90;;;;;;5044943;28;20029;-32
2023/08/14 01:51:12;;;;;;;3.05;2.72;;;18.70;99.90;;;;;;5043377;28;20037;-32
2023/08/14 01:53:41;;;;;;;3.47;3.03;;;18.40;99.90;;;;;;5038839;28;20434;-32
2023/08/14 01:56:06;;;;;;;4.03;2.88;;;18.50;99.90;;;;;;5042264;28;20033;-33
2023/08/14 01:58:32;;;;;;;4.40;2.97;;;18.50;99.90;;;;;;5040290;28;20056;-33
2023/08/14 02:00:57;;;;;;;6.93;3.53;;;18.50;99.90;;;;;;5042193;28;20057;-32
2023/08/14 02:03:25;;;;;;;11.27;4.15;;;18.60;99.90;;;;;;5025739;28;20037;-36
2023/08/14 02:05:50;;;;;;;8.55;3.35;;;18.70;99.90;;;;;;5041273;28;20888;-34
2023/08/14 02:08:16;;;;;;;5.47;3.50;;;18.60;99.90;;;;;;5044328;28;20068;-33
2023/08/14 02:10:41;;;;;;;7.25;3.70;;;18.70;99.90;;;;;;5040258;28;20032;-34
2023/08/14 02:13:07;;;;;;;5.32;3.20;;;18.60;99.90;;;;;;5042905;28;20092;-33
2023/08/14 02:15:33;;;;;;;4.10;3.30;;;18.70;99.90;;;;;;5041597;28;20087;-33
2023/08/14 02:17:58;;;;;;;6.78;3.53;;;18.80;99.90;;;;;;5040845;28;20045;-33
2023/08/14 02:20:25;;;;;;;3.10;2.80;;;18.80;99.90;;;;;;5042557;28;20071;-33
2023/08/14 02:22:50;;;;;;;4.30;2.95;;;18.90;99.90;;;;;;5042544;28;20132;-33
2023/08/14 02:25:16;;;;;;;4.10;2.80;;;18.90;99.90;;;;;;5036173;28;20115;-34
2023/08/14 02:27:42;;;;;;;3.58;2.90;;;18.90;99.90;;;;;;5042308;28;20052;-34
2023/08/14 02:30:07;;;;;;;3.25;2.92;;;18.90;99.90;;;;;;5024424;28;20494;-34
2023/08/14 02:32:33;;;;;;;3.63;2.65;;;19.00;99.90;;;;;;5041075;28;20029;-32
2023/08/14 02:34:59;;;;;;;3.65;2.45;;;19.00;99.90;;;;;;5037647;28;20108;-33
2023/08/14 02:37:24;;;;;;;2.88;2.63;;;18.90;99.90;;;;;;5041666;28;20052;-35
2023/08/14 02:39:50;;;;;;;5.75;2.70;;;19.00;99.90;;;;;;5037024;28;20565;-34
2023/08/14 02:42:17;;;;;;;5.43;2.97;;;19.00;99.90;;;;;;5041268;28;20500;-36
2023/08/14 02:44:43;;;;;;;2.83;2.63;;;19.00;99.90;;;;;;5041088;28;20061;-43
2023/08/14 02:47:09;;;;;;;3.20;2.90;;;19.10;99.90;;;;;;5043215;28;20057;-40
2023/08/14 02:49:34;;;;;;;4.40;2.80;;;19.10;99.90;;;;;;5039381;28;20491;-42
2023/08/14 02:52:00;;;;;;;2.67;2.47;;;19.10;99.90;;;;;;5041534;28;20160;-41
2023/08/14 02:54:26;;;;;;;3.95;2.67;;;19.20;99.90;;;;;;5044135;28;20501;-41
2023/08/14 02:56:51;;;;;;;3.03;2.70;;;19.00;99.90;;;;;;5043036;28;20060;-39
2023/08/14 02:59:17;;;;;;;3.28;2.85;;;19.00;99.90;;;;;;5037952;28;20045;-39
2023/08/14 03:01:43;;;;;;;4.50;2.72;;;19.00;99.90;;;;;;5039727;28;20037;-36
2023/08/14 03:04:09;;;;;;;4.95;3.05;;;19.00;99.90;;;;;;5040959;28;20033;-41
2023/08/14 03:06:34;;;;;;;4.40;3.00;;;19.10;99.90;;;;;;5046073;28;20032;-42
2023/08/14 03:09:01;;;;;;;3.60;3.30;;;19.10;99.90;;;;;;5041950;28;20029;-38
2023/08/14 03:11:27;;;;;;;6.38;2.80;;;18.90;99.90;;;;;;5039886;28;20028;-39
2023/08/14 03:13:52;;;;;;;4.13;2.95;;;18.90;99.90;;;;;;5042954;28;20439;-39
2023/08/14 03:16:18;;;;;;;3.25;2.95;;;19.00;99.90;;;;;;5028111;28;20099;-41
2023/08/14 03:18:43;;;;;;;3.35;2.88;;;19.10;99.90;;;;;;5038113;28;20041;-40
2023/08/14 03:21:09;;;;;;;3.45;2.95;;;19.00;99.90;;;;;;5024698;28;20037;-42
2023/08/14 03:23:36;;;;;;;4.63;2.97;;;19.10;99.90;;;;;;5038218;28;20037;-41
2023/08/14 03:26:02;;;;;;;3.97;2.75;;;19.10;99.90;;;;;;5041105;28;20063;-38
2023/08/14 03:28:28;;;;;;;4.38;3.95;;;19.10;99.90;;;;;;5039060;28;20043;-38
2023/08/14 03:30:54;;;;;;;3.10;2.80;;;19.10;99.90;;;;;;5043015;28;20033;-42
2023/08/14 03:33:19;;;;;;;3.30;3.00;;;19.10;99.90;;;;;;5040647;28;20025;-41
2023/08/14 03:35:45;;;;;;;3.08;2.88;;;19.10;99.90;;;;;;5038488;28;20021;-41
2023/08/14 03:38:11;;;;;;;2.83;2.40;;;19.20;99.90;;;;;;5038008;28;20044;-42
2023/08/14 03:40:37;;;;;;;2.72;2.53;;;19.10;99.90;;;;;;5041538;28;20033;-41
2023/08/14 03:43:02;;;;;;;3.17;2.88;;;19.10;99.90;;;;;;5042007;28;20035;-39
2023/08/14 03:45:28;;;;;;;4.82;2.85;;;19.00;99.90;;;;;;5039678;28;20033;-39
2023/08/14 03:47:54;;;;;;;3.28;2.97;;;18.90;99.90;;;;;;5041434;28;20036;-41
2023/08/14 03:50:19;;;;;;;5.03;3.60;;;18.80;99.90;;;;;;5046553;28;20828;-42
2023/08/14 03:52:45;;;;;;;3.85;3.28;;;18.80;99.90;;;;;;5038632;28;20035;-41
2023/08/14 03:55:11;;;;;;;4.25;3.53;;;18.80;99.90;;;;;;5038793;28;20034;-42
2023/08/14 03:57:36;;;;;;;9.82;3.85;;;18.80;99.90;;;;;;5041705;28;20029;-40
2023/08/14 04:00:02;;;;;;;4.22;3.80;;;18.90;99.90;;;;;;5042798;28;20021;-41
2023/08/14 04:02:28;;;;;;;4.15;3.67;;;18.90;99.90;;;;;;5040458;28;20029;-41
2023/08/14 04:04:54;;;;;;;7.30;4.00;;;18.80;99.90;;;;;;5037548;28;20455;-41
2023/08/14 04:07:19;;;;;;;5.28;3.85;;;18.70;99.90;;;;;;5040742;28;21035;-39
2023/08/14 04:09:45;;;;;;;6.22;3.60;;;18.70;99.90;;;;;;5038183;28;20041;-41
2023/08/14 04:12:11;;;;;;;3.90;3.47;;;18.80;99.90;;;;;;5038244;28;20858;-41
2023/08/14 04:14:36;;;;;;;7.43;3.70;;;18.70;99.90;;;;;;5040801;28;20024;-32
2023/08/14 04:17:02;;;;;;;6.40;4.00;;;18.80;99.90;;;;;;5042061;28;20144;-37
2023/08/14 04:19:28;;;;;;;3.70;3.40;;;18.90;99.90;;;;;;5022184;28;20406;-35
2023/08/14 04:21:54;;;;;;;6.45;4.05;;;18.90;99.90;;;;;;5027411;28;20028;-32
2023/08/14 04:24:20;;;;;;;6.18;3.55;;;18.90;99.90;;;;;;5024435;28;20029;-31
2023/08/14 04:26:46;;;;;;;6.28;3.58;;;18.80;99.90;;;;;;5037076;28;20033;-33
2023/08/14 04:29:12;;;;;;;4.35;3.80;;;18.90;99.90;;;;;;5024032;28;20473;-35
2023/08/14 04:31:40;;;;;;;4.55;3.50;;;19.00;99.90;;;;;;5026246;28;20031;-31
2023/08/14 04:34:07;;;;;;;3.97;3.25;;;19.10;99.90;;;;;;5024922;28;20479;-31
2023/08/14 04:36:34;;;;;;;4.43;3.30;;;19.10;99.90;;;;;;5025636;28;20040;-31
2023/08/14 04:39:03;;;;;;;4.28;3.53;;;19.10;99.90;;;;;;5022972;28;20033;-31
2023/08/14 04:41:29;;;;;;;4.50;3.55;;;19.10;99.90;;;;;;5025617;28;20112;-34
2023/08/14 04:43:55;;;;;;;6.72;3.42;;;19.00;99.90;;;;;;5023614;28;20120;-34
2023/08/14 04:46:38;;;;;;;3.88;3.47;;;18.90;99.90;;;;;;5008525;28;20479;-30
2023/08/14 04:49:05;;;;;;;3.80;3.30;;;19.00;99.90;;;;;;5020361;28;20029;-32
2023/08/14 04:51:31;;;;;;;8.48;4.07;;;19.00;99.90;;;;;;5024012;28;20526;-34
2023/08/14 04:54:00;;;;;;;4.15;3.72;;;19.00;99.90;;;;;;5020175;28;20523;-33
2023/08/14 04:56:26;;;;;;;4.15;3.50;;;19.00;99.90;;;;;;5022615;28;20025;-33
2023/08/14 04:58:53;;;;;;;4.70;3.75;;;19.00;99.90;;;;;;5022022;28;20036;-31
2023/08/14 05:01:22;;;;;;;4.20;3.38;;;19.00;99.90;;;;;;5040886;28;20025;-31
2023/08/14 05:03:48;;;;;;;4.38;3.10;;;18.90;99.90;;;;;;5022794;28;20119;-35
2023/08/14 05:06:14;;;;;;;3.90;3.00;;;18.90;99.90;;;;;;5035900;28;20028;-33
2023/08/14 05:08:39;;;;;;;5.30;3.35;;;18.90;99.90;;;;;;5037796;28;20293;-34
2023/08/14 05:11:06;;;;;;;3.63;3.30;;;18.80;99.90;;;;;;5040292;28;20596;-33
2023/08/14 05:13:32;;;;;;;5.65;3.10;;;18.80;99.90;;;;;;5042052;28;20021;-33
2023/08/14 05:15:57;;;;;;;2.85;2.65;;;18.70;99.90;;;;;;5041414;28;20036;-33
2023/08/14 05:18:23;;;;;;;4.03;3.35;;;18.60;99.90;;;;;;5035422;28;20049;-34
2023/08/14 05:20:50;;;;;;;4.63;3.65;;;18.80;99.90;;;;;;5042014;28;20048;-36
2023/08/14 05:23:16;;;;;;;4.45;4.03;;;18.90;99.90;;;;;;5037371;28;20493;-35
2023/08/14 05:25:43;;;;;;;4.35;3.85;;;18.90;99.90;;;;;;5039388;28;20778;-32
2023/08/14 05:28:08;;;;;;;4.85;3.53;;;19.00;99.90;;;;;;5037684;28;20029;-32
2023/08/14 05:30:34;;;;;;;4.05;3.60;;;19.20;99.90;;;;;;5039129;28;20563;-32
2023/08/14 05:33:00;;;;;;;5.45;4.03;;;19.20;99.90;;;;;;5040889;28;20033;-34
2023/08/14 05:35:26;;;;;;;3.67;3.25;;;19.30;99.90;;;;;;5038105;28;20782;-38
2023/08/14 05:37:55;;;;;;;5.10;3.85;;;19.40;99.90;;;;;;5038534;28;20149;-31
2023/08/14 05:40:28;;;;;;;4.07;3.58;;;19.40;99.90;;;;;;5040741;28;20051;-31
2023/08/14 05:43:08;;;;;;;5.85;4.30;;;19.50;99.90;;;;;;5043976;28;20112;-33
2023/08/14 05:45:36;;;;;;;5.70;3.85;;;19.50;99.90;;;;;;5044943;28;20033;-31
2023/08/14 05:48:04;;;;;;;3.80;3.50;;;19.50;99.90;;;;;;5051975;28;20047;-34
2023/08/14 05:50:30;;;;;;;4.93;3.60;;;19.50;99.90;;;;;;5038559;28;20112;-34
2023/08/14 05:52:56;;;;;;;5.45;3.65;;;19.60;99.90;;;;;;5025135;28;20044;-31
2023/08/14 05:55:26;;;;;;;4.78;4.20;;;19.60;99.90;;;;;;5028075;28;20653;-33
2023/08/14 05:57:51;;;;;;;4.50;4.10;;;19.70;99.90;;;;;;5043701;28;20037;-33
2023/08/14 06:00:18;;;;;;;5.13;3.95;;;19.70;99.90;;;;;;5044341;28;20028;-32
2023/08/14 06:02:44;;;;;;;3.55;3.25;;;19.80;99.90;;;;;;5045450;28;20829;-32
2023/08/14 06:05:10;;;;;;;3.38;3.08;;;19.90;99.90;;;;;;5042205;28;20037;-32
2023/08/14 06:07:36;;;;;;;4.45;3.50;;;19.90;99.90;;;;;;5043060;28;20043;-30
2023/08/14 06:10:04;;;;;;;4.03;3.63;;;19.90;99.90;;;;;;5040503;28;20141;-33
2023/08/14 06:12:30;;;;;;;4.53;3.28;;;20.10;99.90;;;;;;5041057;28;20022;-32
2023/08/14 06:14:56;;;;;;;3.85;3.45;;;20.20;99.90;;;;;;5045795;28;20026;-34
2023/08/14 06:17:22;;;;;;;4.60;3.78;;;20.20;99.90;;;;;;5043205;28;20049;-32
2023/08/14 06:19:47;;;;;;;4.38;3.45;;;20.30;99.90;;;;;;5042464;28;20028;-30
2023/08/14 06:22:13;;;;;;;6.50;3.50;;;20.40;99.90;;;;;;5039336;28;20037;-31
2023/08/14 06:24:39;;;;;;;3.50;3.15;;;20.40;99.90;;;;;;5040713;28;20064;-31
2023/08/14 06:27:04;;;;;;;4.20;3.67;;;20.50;99.90;;;;;;5039102;28;20067;-30
2023/08/14 06:29:30;;;;;;;5.25;3.95;;;20.60;99.90;;;;;;5043737;28;20061;-31
2023/08/14 06:31:57;;;;;;;6.65;4.20;;;20.70;99.90;;;;;;5037896;28;20609;-31
2023/08/14 06:34:23;;;;;;;5.70;3.47;;;20.70;99.90;;;;;;5041090;28;20118;-30
2023/08/14 06:36:48;;;;;;;4.15;3.53;;;20.80;99.90;;;;;;5039141;28;20111;-30
2023/08/14 06:39:14;;;;;;;5.55;3.47;;;20.80;99.90;;;;;;5040839;28;20379;-30
2023/08/14 06:41:40;;;;;;;4.93;3.50;;;20.80;99.90;;;;;;5041180;28;20024;-31
2023/08/14 06:44:11;;;;;;;4.80;4.00;;;20.80;99.90;;;;;;5042356;28;20053;-33
2023/08/14 06:46:38;;;;;;;4.45;3.60;;;20.80;99.90;;;;;;5041977;28;20371;-31
2023/08/14 06:49:04;;;;;;;3.72;3.30;;;20.80;99.90;;;;;;5043624;28;20537;-30
2023/08/14 06:51:29;;;;;;;3.88;3.35;;;20.90;99.90;;;;;;5043643;28;20163;-32
2023/08/14 06:53:55;;;;;;;3.67;3.25;;;21.00;99.90;;;;;;5039849;28;20029;-31
2023/08/14 06:56:20;;;;;;;5.70;3.60;;;21.10;99.90;;;;;;5042989;28;20032;-31
2023/08/14 06:58:46;;;;;;;4.20;2.95;;;21.10;99.90;;;;;;5041458;28;20034;-30
2023/08/14 07:01:12;;;;;;;3.70;3.22;;;21.10;99.90;;;;;;5039574;28;20591;-31
2023/08/14 07:03:38;;;;;;;4.68;3.85;;;21.40;99.90;;;;;;5040012;28;20155;-31
2023/08/14 07:06:03;;;;;;;5.13;3.75;;;21.40;99.90;;;;;;5038791;28;20029;-33
2023/08/14 07:08:29;;;;;;;4.55;3.33;;;21.40;99.90;;;;;;5043869;28;20021;-29
2023/08/14 07:10:55;;;;;;;4.95;3.33;;;21.40;99.90;;;;;;5039538;28;20029;-36
2023/08/14 07:13:21;;;;;;;3.95;3.42;;;21.50;99.90;;;;;;5043374;28;20398;-30
2023/08/14 07:15:47;;;;;;;3.33;2.90;;;21.60;99.90;;;;;;5040046;28;20067;-30
2023/08/14 07:18:15;;;;;;;4.38;3.78;;;21.80;99.90;;;;;;5038932;28;20071;-34
2023/08/14 07:20:40;;;;;;;4.22;3.00;;;21.90;99.90;;;;;;5041936;28;20048;-32
2023/08/14 07:23:06;;;;;;;3.58;3.25;;;21.80;99.90;;;;;;5040791;28;20458;-31
2023/08/14 07:25:32;;;;;;;4.28;3.25;;;21.70;99.90;;;;;;5042142;28;20485;-31
2023/08/14 07:27:58;;;;;;;3.35;2.85;;;21.70;99.90;;;;;;5023775;28;20029;-31
2023/08/14 07:30:24;;;;;;;3.83;2.97;;;21.70;99.90;;;;;;5025167;28;20078;-32
2023/08/14 07:32:50;;;;;;;3.17;2.88;;;21.80;99.90;;;;;;5026605;28;20631;-30
2023/08/14 07:35:16;;;;;;;4.07;2.97;;;22.00;99.90;;;;;;5024444;28;20052;-33
2023/08/14 07:37:41;;;;;;;4.13;2.78;;;22.10;99.90;;;;;;5041750;28;20059;-33
2023/08/14 07:40:09;;;;;;;4.20;3.13;;;22.00;99.90;;;;;;5041333;28;20055;-36
2023/08/14 07:42:35;;;;;;;3.08;2.78;;;22.10;99.90;;;;;;5040111;28;20029;-34
2023/08/14 07:45:00;;;;;;;3.40;3.10;;;22.30;99.90;;;;;;5040502;28;20502;-41
2023/08/14 07:47:26;;;;;;;4.57;3.20;;;22.60;99.90;;;;;;5036622;28;20649;-39
2023/08/14 07:49:52;;;;;;;7.32;3.40;;;22.50;99.90;;;;;;5039334;28;20489;-37
2023/08/14 07:52:17;;;;;;;3.60;3.17;;;22.50;99.90;;;;;;5023953;28;20510;-35
2023/08/14 07:54:43;;;;;;;5.07;3.08;;;22.40;99.90;;;;;;5045950;28;20790;-38
2023/08/14 07:57:08;;;;;;;3.40;3.00;;;22.40;99.90;;;;;;5034875;28;20021;-37
2023/08/14 07:59:34;;;;;;;4.60;3.05;;;22.40;99.90;;;;;;5038285;28;20099;-39
2023/08/14 08:02:00;;;;;;;4.00;3.13;;;22.50;99.90;;;;;;5038268;28;20247;-37
2023/08/14 08:04:25;;;;;;;4.35;2.90;;;22.60;99.90;;;;;;5037374;28;20036;-40
2023/08/14 08:06:52;;;;;;;3.00;2.75;;;22.70;99.90;;;;;;5035550;28;20512;-40
2023/08/14 08:09:17;;;;;;;4.97;2.80;;;22.80;99.90;;;;;;5023181;28;20490;-41
2023/08/14 08:11:43;;;;;;;4.78;2.90;;;22.80;99.90;;;;;;5043514;28;20067;-37
2023/08/14 08:14:09;;;;;;;4.07;2.63;;;22.80;99.90;;;;;;5023038;28;20078;-38
2023/08/14 08:16:38;;;;;;;2.78;2.58;;;23.10;99.90;;;;;;5040321;28;20112;-38
2023/08/14 08:19:06;;;;;;;4.65;2.92;;;23.10;99.90;;;;;;5042089;28;20548;-42
2023/08/14 08:21:32;;;;;;;3.00;2.70;;;23.10;99.90;;;;;;5041221;28;20470;-42
2023/08/14 08:23:58;;;;;;;4.20;3.42;;;23.40;99.90;;;;;;5042443;28;20028;-36
2023/08/14 08:26:25;;;;;;;3.60;2.90;;;23.40;99.90;;;;;;5042802;28;20107;-36
2023/08/14 08:28:51;;;;;;;4.72;3.38;;;23.40;99.90;;;;;;5029463;28;20175;-36
2023/08/14 08:31:17;;;;;;;4.85;2.50;;;23.60;99.90;;;;;;5026719;28;20044;-34
2023/08/14 08:33:42;;;;;;;5.00;2.88;;;23.80;99.90;;;;;;5027697;28;20021;-36
2023/08/14 08:36:08;;;;;;;3.25;2.70;;;24.20;99.90;;;;;;5029514;28;20072;-38
2023/08/14 08:38:34;;;;;;;3.55;3.25;;;24.50;99.90;;;;;;5029218;28;20092;-37
2023/08/14 08:41:02;;;;;;;2.97;2.58;;;24.90;99.90;;;;;;5012922;28;20037;-35
2023/08/14 08:43:31;;;;;;;3.58;2.63;;;24.80;99.90;;;;;;5028675;28;20494;-36
2023/08/14 08:46:01;;;;;;;4.05;2.90;;;24.60;99.90;;;;;;5032119;28;20078;-36
2023/08/14 08:48:29;;;;;;;3.40;2.90;;;24.60;99.90;;;;;;5029354;28;20025;-39
2023/08/14 08:50:56;;;;;;;3.88;3.40;;;24.50;99.90;;;;;;5027922;28;20032;-40
2023/08/14 08:53:22;;;;;;;5.88;3.10;;;24.60;99.90;;;;;;5028829;28;20030;-39
2023/08/14 08:55:48;;;;;;;2.90;2.35;;;24.70;99.90;;;;;;5028990;28;20030;-32
2023/08/14 08:58:16;;;;;;;2.78;2.58;;;24.80;99.90;;;;;;5028445;28;20086;-32
2023/08/14 09:00:43;;;;;;;5.32;2.83;;;25.10;99.90;;;;;;5027578;28;20036;-33
2023/08/14 09:03:09;;;;;;;3.65;2.63;;;25.10;99.90;;;;;;5028768;28;20048;-37
2023/08/14 09:05:36;;;;;;;3.38;2.70;;;25.10;99.90;;;;;;5032588;28;20432;-34
2023/08/14 09:08:02;;;;;;;5.65;2.78;;;25.20;99.90;;;;;;5033708;28;20064;-35
2023/08/14 09:10:28;;;;;;;3.22;2.65;;;25.40;99.90;;;;;;5021581;28;20084;-35
2023/08/14 09:12:58;;;;;;;4.05;3.15;;;25.50;99.90;;;;;;5044118;28;20036;-33
2023/08/14 09:15:24;;;;;;;3.10;2.80;;;25.50;99.90;;;;;;5045225;28;20021;-34
2023/08/14 09:17:53;;;;;;;3.55;2.95;;;25.50;99.90;;;;;;5042674;28;20116;-33
2023/08/14 09:20:19;;;;;;;3.55;2.60;;;25.70;99.90;;;;;;5043646;28;20097;-32
2023/08/14 09:22:45;;;;;;;4.53;2.70;;;25.70;99.90;;;;;;5043808;28;20040;-32
2023/08/14 09:25:11;;;;;;;4.38;2.55;;;25.80;99.90;;;;;;5044033;28;20120;-32
2023/08/14 09:27:37;;;;;;;3.97;3.10;;;25.90;99.90;;;;;;5040017;28;20151;-33
2023/08/14 09:30:06;;;;;;;3.05;2.40;;;25.80;99.90;;;;;;5043265;28;20025;-32
2023/08/14 09:32:32;;;;;;;2.92;2.60;;;25.80;99.90;;;;;;5036632;28;20081;-34
2023/08/14 09:35:01;;;;;;;3.22;2.70;;;25.50;99.90;;;;;;5040990;28;20481;-33
2023/08/14 09:37:27;;;;;;;3.25;2.63;;;25.50;99.90;;;;;;5021642;28;20044;-33
2023/08/14 09:40:10;;;;;;;3.00;2.70;;;25.60;99.90;;;;;;5046259;28;20029;-33
2023/08/14 09:42:36;;;;;;;3.38;2.60;;;25.60;99.90;;;;;;5043036;28;20657;-32
2023/08/14 09:45:02;;;;;;;3.03;2.50;;;25.60;99.90;;;;;;5042948;28;20036;-38
2023/08/14 09:47:30;;;;;;;3.15;2.55;;;25.50;99.90;;;;;;5044854;28;20032;-39
2023/08/14 09:49:56;;;;;;;3.33;2.78;;;25.40;99.90;;;;;;5047764;28;20033;-40
2023/08/14 09:52:23;;;;;;;2.70;2.50;;;25.50;99.90;;;;;;5046900;28;20040;-40
2023/08/14 09:54:50;;;;;;;2.95;2.63;;;25.50;99.90;;;;;;5041845;28;20064;-41
2023/08/14 09:57:16;;;;;;;3.58;2.80;;;25.60;99.90;;;;;;5029300;28;20056;-39
2023/08/14 09:59:42;;;;;;;2.70;2.50;;;25.80;99.90;;;;;;5041339;28;22061;-39
2023/08/14 10:02:16;;;;;;;2.92;2.60;;;25.80;99.90;;;;;;5042400;28;20065;-42
2023/08/14 10:04:46;;;;;;;3.65;2.60;;;25.80;99.90;;;;;;5038347;28;20897;-35
2023/08/14 10:07:16;;;;;;;3.75;2.53;;;25.80;99.90;;;;;;5042658;28;20037;-33
2023/08/14 10:09:48;;;;;;;3.25;2.47;;;26.10;99.90;;;;;;5043281;28;20040;-33
2023/08/14 10:12:16;;;;;;;4.47;2.83;;;26.20;99.90;;;;;;5045411;28;20021;-31
2023/08/14 10:14:47;;;;;;;5.25;3.00;;;26.10;99.90;;;;;;5036645;28;20112;-32
2023/08/14 10:17:21;;;;;;;3.83;3.00;;;26.10;99.90;;;;;;5038352;28;20072;-34
2023/08/14 10:19:52;;;;;;;4.68;3.45;;;26.40;99.90;;;;;;5041020;28;20033;-31
2023/08/14 10:22:19;;;;;;;5.95;3.63;;;26.30;99.90;;;;;;5046289;28;20102;-31
2023/08/14 10:24:46;;;;;;;5.55;3.40;;;26.00;99.90;;;;;;5044143;28;20037;-32
2023/08/14 10:27:11;;;;;;;7.15;4.05;;;26.10;99.90;;;;;;5043713;28;20048;-31
2023/08/14 10:29:38;;;;;;;8.60;4.60;;;26.00;99.90;;;;;;5038136;28;20037;-31
2023/08/14 10:32:05;;;;;;;7.43;4.47;;;25.80;99.90;;;;;;5042691;28;20116;-31
2023/08/14 10:34:32;;;;;;;7.53;4.78;;;25.70;99.90;;;;;;5044805;28;20874;-32
2023/08/14 10:36:58;;;;;;;7.47;4.15;;;25.70;99.90;;;;;;5025749;28;20398;-30
2023/08/14 10:39:34;;;;;;;4.65;3.72;;;25.80;99.90;;;;;;5046392;28;20033;-32
2023/08/14 10:42:02;;;;;;;6.05;3.60;;;25.90;99.90;;;;;;5043407;28;20025;-31
2023/08/14 10:44:35;;;;;;;5.25;3.15;;;26.10;99.90;;;;;;5044674;28;20037;-30
2023/08/14 10:47:11;;;;;;;5.55;3.35;;;26.30;99.90;;;;;;5040594;28;20044;-32
2023/08/14 10:49:54;;;;;;;3.50;3.03;;;26.50;99.90;;;;;;5042043;28;20119;-32
2023/08/14 10:52:20;;;;;;;3.85;3.10;;;26.40;99.90;;;;;;5044773;28;20505;-30
2023/08/14 10:54:52;;;;;;;3.75;2.72;;;26.70;99.90;;;;;;5049308;28;20021;-41
2023/08/14 10:57:26;;;;;;;4.10;2.90;;;26.80;99.90;;;;;;5038463;28;20040;-40
2023/08/14 10:59:57;;;;;;;3.95;2.85;;;26.60;99.90;;;;;;5039164;28;20139;-39
2023/08/14 11:02:25;;;;;;;3.78;2.80;;;26.50;99.90;;;;;;5041425;28;20033;-41
2023/08/14 11:05:00;;;;;;;;;;;26.50;99.90;;;;;;5044307;28;20043;-38
2023/08/14 11:07:34;;;;;;;3.40;2.67;;;26.40;99.90;;;;;;5039434;28;19924;-40
2023/08/14 11:10:03;;;;;;;3.58;2.65;;;26.20;99.90;;;;;;5042730;28;20051;-40
2023/08/14 11:12:28;;;;;;;4.70;3.03;;;26.30;99.90;;;;;;5042974;28;20057;-39
2023/08/14 11:14:57;;;;;;;3.38;2.63;;;26.40;99.90;;;;;;5041496;28;20059;-40
2023/08/14 11:17:24;;;;;;;3.20;2.90;;;26.90;99.90;;;;;;5039875;28;20468;-40
2023/08/14 11:19:50;;;;;;;3.10;2.80;;;26.90;99.90;;;;;;5043944;28;20028;-40
2023/08/14 11:22:16;;;;;;;3.10;2.75;;;26.90;99.90;;;;;;5039066;28;20092;-40
2023/08/14 11:24:41;;;;;;;4.15;2.72;;;26.90;99.90;;;;;;5041275;28;20029;-38
2023/08/14 11:27:07;;;;;;;2.88;2.58;;;26.90;99.90;;;;;;5039716;28;20032;-40
2023/08/14 11:29:35;;;;;;;4.45;2.72;;;26.80;99.90;;;;;;5041161;28;20057;-41
2023/08/14 11:32:01;;;;;;;3.30;2.90;;;26.90;99.90;;;;;;5042083;28;20049;-39
2023/08/14 11:34:27;;;;;;;3.85;3.33;;;26.90;99.90;;;;;;5038170;28;20043;-41
2023/08/14 11:36:56;;;;;;;4.70;3.47;;;26.80;99.90;;;;;;5037283;28;20029;-40
2023/08/14 11:39:21;;;;;;;3.88;3.20;;;26.70;99.90;;;;;;5024279;28;20505;-40
2023/08/14 11:41:47;;;;;;;4.00;3.08;;;26.90;99.90;;;;;;5039734;28;20021;-39
2023/08/14 11:44:13;;;;;;;3.30;2.78;;;26.90;99.90;;;;;;5039859;28;20036;-39
2023/08/14 11:46:38;;;;;;;3.35;2.80;;;27.00;99.90;;;;;;5026394;28;20052;-39
2023/08/14 11:49:04;;;;;;;3.17;2.88;;;27.10;99.90;;;;;;5040833;28;20112;-40
2023/08/14 11:51:31;;;;;;;4.60;2.90;;;27.10;99.90;;;;;;5025436;28;20041;-36
2023/08/14 11:53:59;;;;;;;5.03;2.93;;;27.10;99.90;;;;;;5042729;28;20593;-40
2023/08/14 11:56:25;;;;;;;3.22;2.92;;;27.00;99.90;;;;;;5038668;28;20029;-40
2023/08/14 11:58:52;;;;;;;5.43;3.10;;;27.00;99.90;;;;;;5037366;28;20047;-39
2023/08/14 12:01:17;;;;;;;4.32;2.92;;;26.80;99.90;;;;;;5040157;28;20145;-36
2023/08/14 12:03:43;;;;;;;4.72;2.85;;;26.80;99.90;;;;;;5039891;28;20059;-40
2023/08/14 12:06:08;;;;;;;3.72;3.00;;;26.90;99.90;;;;;;5045884;28;20483;-38
2023/08/14 12:08:34;;;;;;;5.03;3.22;;;27.00;99.90;;;;;;5039790;28;20037;-37
2023/08/14 12:11:00;;;;;;;2.72;2.47;;;27.10;99.90;;;;;;5042806;28;20128;-40
2023/08/14 12:13:25;;;;;;;3.20;2.90;;;27.10;99.90;;;;;;5041470;28;20032;-41
2023/08/14 12:15:51;;;;;;;4.50;2.90;;;27.00;99.90;;;;;;5037809;28;20068;-41
2023/08/14 12:18:23;;;;;;;4.43;2.83;;;27.00;99.90;;;;;;5045801;28;20135;-40
2023/08/14 12:20:53;;;;;;;5.43;2.90;;;27.10;99.90;;;;;;5040176;28;20033;-41
2023/08/14 12:23:22;;;;;;;3.42;3.05;;;27.20;99.90;;;;;;5039134;28;20028;-40
2023/08/14 12:25:48;;;;;;;3.90;2.85;;;27.30;99.90;;;;;;5041971;28;20037;-40
2023/08/14 12:28:13;;;;;;;5.47;3.00;;;27.30;99.90;;;;;;5037895;28;20049;-39
2023/08/14 12:30:39;;;;;;;3.38;3.08;;;27.30;99.90;;;;;;5037986;28;20508;-40
2023/08/14 12:33:04;;;;;;;3.63;2.97;;;27.50;99.90;;;;;;5040654;28;20628;-40
2023/08/14 12:35:30;;;;;;;3.75;3.00;;;27.40;99.90;;;;;;5039599;28;20025;-40
2023/08/14 12:37:56;;;;;;;4.82;3.10;;;27.40;99.90;;;;;;5023132;28;20091;-39
2023/08/14 12:40:21;;;;;;;4.47;3.30;;;27.50;99.90;;;;;;5044571;28;20037;-41
2023/08/14 12:42:47;;;;;;;5.05;3.25;;;27.80;99.90;;;;;;5028517;28;20032;-39
2023/08/14 12:45:13;;;;;;;3.30;2.80;;;28.00;99.90;;;;;;5044333;28;20120;-39
2023/08/14 12:47:39;;;;;;;3.75;3.22;;;28.10;99.90;;;;;;5043158;28;20060;-37